Time;durP1;ratioP1;P1;durP2;ratioP2;P2;SDS_P1;SDS_P2;PMS_P1;PMS_P2;Temp;Humidity;BMP_temperature;BMP_pressure;BME280_temperature;BME280_humidity;BME280_pressure;Samples;Min_cycle;Max_cycle;Signal;HPM_P1;HPM_P2
2020/12/05 00:00:02;;;;;;;32.63;6.78;;;;;;;2.60;65.67;93795.06;5011034;28;20071;-70
2020/12/05 00:02:28;;;;;;;25.33;6.15;;;;;;;2.55;66.02;93795.25;5013628;28;20056;-70
2020/12/05 00:04:55;;;;;;;32.58;6.47;;;;;;;2.55;65.92;93795.25;5013648;28;20042;-71
2020/12/05 00:07:21;;;;;;;17.85;6.30;;;;;;;2.54;66.22;93812.50;5012980;28;20050;-70
2020/12/05 00:09:47;;;;;;;14.98;5.95;;;;;;;2.51;66.24;93800.53;5013479;28;20596;-71
2020/12/05 00:12:13;;;;;;;16.48;6.18;;;;;;;2.51;66.25;93805.13;5013377;28;20128;-70
2020/12/05 00:14:39;;;;;;;13.60;6.00;;;;;;;2.53;66.55;93810.94;5013344;28;20042;-70
2020/12/05 00:17:04;;;;;;;13.48;5.80;;;;;;;2.54;66.42;93799.06;5012962;28;20064;-70
2020/12/05 00:19:30;;;;;;;12.48;5.50;;;;;;;2.54;66.50;93801.75;5013383;28;20511;-71
2020/12/05 00:21:59;;;;;;;11.20;5.13;;;;;;;2.56;66.25;93796.88;5013326;28;20085;-70
2020/12/05 00:24:25;;;;;;;13.95;5.53;;;;;;;2.57;66.36;93803.81;5012802;28;20038;-70
2020/12/05 00:26:54;;;;;;;11.98;5.20;;;;;;;2.57;66.30;93796.53;5013327;28;20038;-70
2020/12/05 00:29:20;;;;;;;16.85;6.18;;;;;;;2.60;66.24;93803.13;5012175;28;20555;-70
2020/12/05 00:31:49;;;;;;;10.70;5.38;;;;;;;2.61;66.07;93818.16;5013196;28;20531;-70
2020/12/05 00:34:15;;;;;;;13.27;5.32;;;;;;;2.69;65.65;93813.81;5012546;28;20054;-70
2020/12/05 00:36:41;;;;;;;9.85;5.00;;;;;;;2.73;65.63;93831.63;5013007;28;20053;-70
2020/12/05 00:39:08;;;;;;;9.85;5.07;;;;;;;2.75;65.62;93829.38;5012136;28;20042;-70
2020/12/05 00:41:34;;;;;;;12.38;5.88;;;;;;;2.76;65.54;93817.53;5012916;28;20046;-70
2020/12/05 00:44:00;;;;;;;13.30;4.60;;;;;;;2.77;65.62;93805.69;5012605;28;20052;-70
2020/12/05 00:46:26;;;;;;;11.75;5.07;;;;;;;2.79;65.48;93800.75;4992890;28;20042;-70
2020/12/05 00:48:52;;;;;;;12.57;5.15;;;;;;;2.80;65.31;93802.31;4993245;28;20077;-70
2020/12/05 00:51:18;;;;;;;12.23;5.30;;;;;;;2.78;65.53;93801.09;4992798;28;20050;-70
2020/12/05 00:53:44;;;;;;;10.40;4.72;;;;;;;2.84;65.42;93797.84;4975632;28;20050;-70
2020/12/05 00:56:17;;;;;;;11.63;5.00;;;;;;;2.86;65.33;93803.66;4992588;28;20042;-70
2020/12/05 00:58:43;;;;;;;9.48;4.57;;;;;;;2.87;65.60;93797.19;4993096;28;20532;-70
2020/12/05 01:01:11;;;;;;;11.38;4.65;;;;;;;2.90;65.44;93795.75;4992682;28;20066;-70
2020/12/05 01:03:37;;;;;;;14.10;5.03;;;;;;;2.90;65.53;93794.97;4993077;28;20046;-70
2020/12/05 01:06:03;;;;;;;10.02;4.40;;;;;;;2.91;65.47;93797.31;4992193;28;20122;-70
2020/12/05 01:08:29;;;;;;;9.55;3.80;;;;;;;2.92;65.50;93776.59;4992969;28;20050;-70
2020/12/05 01:10:55;;;;;;;9.32;4.05;;;;;;;2.99;65.44;93776.84;4992578;28;20482;-70
2020/12/05 01:13:22;;;;;;;8.30;3.53;;;;;;;3.02;65.27;93778.84;4992322;28;20050;-70
2020/12/05 01:15:48;;;;;;;9.52;3.83;;;;;;;3.05;65.33;93770.91;5007281;28;20045;-70
2020/12/05 01:18:14;;;;;;;8.40;3.83;;;;;;;3.12;65.13;93783.81;5011821;28;20121;-70
2020/12/05 01:20:40;;;;;;;9.15;3.78;;;;;;;3.19;65.21;93767.13;5012190;28;20061;-70
2020/12/05 01:23:06;;;;;;;8.30;3.80;;;;;;;3.25;64.78;93766.59;5011526;28;20053;-70
2020/12/05 01:25:32;;;;;;;12.40;4.15;;;;;;;3.32;64.30;93774.09;5012235;28;20045;-70
2020/12/05 01:27:58;;;;;;;9.00;3.45;;;;;;;3.38;64.07;93770.84;5012347;28;20482;-70
2020/12/05 01:30:25;;;;;;;9.23;3.78;;;;;;;3.45;64.12;93764.13;5011643;28;20494;-70
2020/12/05 01:32:51;;;;;;;7.85;3.20;;;;;;;3.51;63.94;93770.88;5012077;28;20048;-71
2020/12/05 01:35:16;;;;;;;9.80;3.72;;;;;;;3.59;63.82;93761.88;5011433;28;20121;-71
2020/12/05 01:37:42;;;;;;;10.68;3.55;;;;;;;3.64;63.85;93748.19;5012060;28;20069;-71
2020/12/05 01:40:08;;;;;;;7.75;3.33;;;;;;;3.70;63.52;93757.59;5010964;28;20391;-71
2020/12/05 01:42:34;;;;;;;8.98;3.65;;;;;;;3.73;63.62;93751.56;5011944;28;20046;-71
2020/12/05 01:45:00;;;;;;;7.90;3.08;;;;;;;3.76;63.66;93750.91;5011604;28;20628;-71
2020/12/05 01:47:28;;;;;;;8.73;3.28;;;;;;;3.74;63.91;93747.75;5011035;28;20104;-70
2020/12/05 01:49:54;;;;;;;10.68;3.50;;;;;;;3.77;63.62;93757.84;5011578;28;20057;-71
2020/12/05 01:52:22;;;;;;;13.05;3.55;;;;;;;3.76;63.57;93767.03;5011137;28;20064;-71
2020/12/05 01:54:48;;;;;;;15.15;3.85;;;;;;;3.74;63.49;93763.88;5011551;28;20049;-71
2020/12/05 01:57:14;;;;;;;14.77;3.80;;;;;;;3.74;63.65;93769.28;5011150;28;20042;-71
2020/12/05 01:59:40;;;;;;;13.77;3.70;;;;;;;3.70;63.81;93760.28;5011590;28;20091;-71
2020/12/05 02:02:06;;;;;;;16.95;3.70;;;;;;;3.69;63.95;93757.94;5011012;28;20129;-71
2020/12/05 02:04:41;;;;;;;17.80;3.75;;;;;;;3.70;64.16;93768.38;5011635;28;20743;-71
2020/12/05 02:07:17;;;;;;;11.50;2.78;;;;;;;3.72;64.00;93765.38;5011061;28;20042;-70
2020/12/05 02:09:47;;;;;;;15.32;2.90;;;;;;;3.76;64.52;93769.75;5011044;28;20042;-70
2020/12/05 02:12:21;;;;;;;10.73;2.60;;;;;;;3.78;64.48;93778.25;5010997;28;20049;-70
2020/12/05 02:14:52;;;;;;;13.43;2.95;;;;;;;3.83;64.53;93780.72;5011174;28;20037;-70
2020/12/05 02:17:21;;;;;;;14.82;2.90;;;;;;;3.86;64.64;93780.06;5011050;28;20052;-71
2020/12/05 02:19:50;;;;;;;10.52;2.97;;;;;;;3.92;64.48;93783.28;5011303;28;20050;-70
2020/12/05 02:22:21;;;;;;;8.68;2.42;;;;;;;3.95;64.33;93789.91;5009998;28;20049;-70
2020/12/05 02:24:49;;;;;;;8.18;2.70;;;;;;;4.01;64.52;93799.31;5011255;28;20038;-70
2020/12/05 02:27:16;;;;;;;7.53;2.83;;;;;;;4.05;64.32;93805.59;5010654;28;20049;-70
2020/12/05 02:29:42;;;;;;;5.68;2.65;;;;;;;4.05;64.20;93805.59;5011321;28;20045;-70
2020/12/05 02:32:08;;;;;;;6.18;2.63;;;;;;;4.05;64.04;93824.44;5010664;28;20042;-70
2020/12/05 02:34:35;;;;;;;5.40;2.38;;;;;;;4.07;64.36;93824.88;5011013;28;20049;-70
2020/12/05 02:37:04;;;;;;;7.38;2.95;;;;;;;4.07;64.18;93827.56;5010464;28;20046;-70
2020/12/05 02:39:31;;;;;;;7.53;2.97;;;;;;;4.04;64.48;93833.66;5010837;28;20042;-70
2020/12/05 02:41:58;;;;;;;6.40;2.58;;;;;;;4.05;64.41;93827.91;5010772;28;20053;-70
2020/12/05 02:44:25;;;;;;;11.00;3.17;;;;;;;4.04;64.50;93839.03;5010532;28;20053;-70
2020/12/05 02:46:55;;;;;;;6.97;2.80;;;;;;;4.01;64.69;93828.94;5010825;28;20042;-70
2020/12/05 02:49:21;;;;;;;10.50;3.35;;;;;;;3.99;64.54;93840.03;5010498;28;20073;-70
2020/12/05 02:51:47;;;;;;;5.60;2.45;;;;;;;3.99;64.93;93844.66;5010618;28;20059;-70
2020/12/05 02:54:13;;;;;;;6.53;3.00;;;;;;;3.96;64.90;93845.31;5010059;28;20069;-70
2020/12/05 02:56:39;;;;;;;10.45;3.38;;;;;;;3.95;65.05;93866.06;5011911;28;20057;-70
2020/12/05 02:59:05;;;;;;;8.27;3.30;;;;;;;3.91;65.35;93854.38;5029842;28;20041;-70
2020/12/05 03:01:31;;;;;;;7.90;3.38;;;;;;;3.88;65.39;93845.09;5030305;28;20084;-70
2020/12/05 03:03:57;;;;;;;7.57;3.00;;;;;;;3.88;65.52;93845.09;5030120;28;20046;-70
2020/12/05 03:06:23;;;;;;;6.97;3.08;;;;;;;3.84;65.83;93844.19;5029697;28;20136;-70
2020/12/05 03:08:49;;;;;;;8.57;2.67;;;;;;;3.82;65.83;93845.66;5029882;28;20037;-70
2020/12/05 03:11:15;;;;;;;7.88;2.88;;;;;;;3.70;66.39;93848.31;5029655;28;20041;-70
2020/12/05 03:13:41;;;;;;;6.32;2.70;;;;;;;3.69;66.44;93846.75;5030118;28;20723;-70
2020/12/05 03:16:08;;;;;;;8.38;3.10;;;;;;;3.65;66.55;93838.56;5029382;28;20102;-70
2020/12/05 03:18:34;;;;;;;8.55;3.53;;;;;;;3.61;66.68;93845.75;5030148;28;20050;-70
2020/12/05 03:21:00;;;;;;;7.57;3.05;;;;;;;3.59;66.54;93847.97;5029690;28;20060;-70
2020/12/05 03:23:26;;;;;;;8.40;3.33;;;;;;;3.58;66.61;93855.28;5029442;28;20065;-70
2020/12/05 03:25:56;;;;;;;7.40;3.17;;;;;;;3.54;66.63;93862.44;5029867;28;20049;-70
2020/12/05 03:28:23;;;;;;;8.20;3.35;;;;;;;3.49;67.22;93881.47;5010107;28;20076;-70
2020/12/05 03:30:49;;;;;;;8.13;3.05;;;;;;;3.48;66.96;93890.69;5010071;28;20125;-70
2020/12/05 03:33:16;;;;;;;7.50;3.22;;;;;;;3.47;67.24;93899.09;5010045;28;20053;-70
2020/12/05 03:35:42;;;;;;;10.02;3.03;;;;;;;3.46;67.56;93903.69;5013954;28;20052;-70
2020/12/05 03:38:08;;;;;;;5.95;2.70;;;;;;;3.48;67.45;93922.19;5013650;28;20578;-70
2020/12/05 03:40:37;;;;;;;8.20;3.20;;;;;;;3.47;67.62;93942.94;5013837;28;20042;-71
2020/12/05 03:43:03;;;;;;;10.63;3.30;;;;;;;3.51;67.64;93948.44;5013766;28;20041;-70
2020/12/05 03:45:29;;;;;;;9.25;3.10;;;;;;;3.54;67.63;93990.81;5013913;28;20046;-71
2020/12/05 03:47:55;;;;;;;7.88;3.10;;;;;;;3.32;67.85;94043.84;5013903;28;20181;-70
2020/12/05 03:50:22;;;;;;;9.63;2.80;;;;;;;3.20;68.02;94078.75;5013395;28;20056;-69
2020/12/05 03:52:48;;;;;;;6.07;2.50;;;;;;;3.12;67.34;94082.28;5013658;28;20048;-70
2020/12/05 03:55:14;;;;;;;6.75;2.88;;;;;;;3.04;67.36;94112.72;5013263;28;20128;-70
2020/12/05 03:57:40;;;;;;;10.32;3.78;;;;;;;2.78;66.91;94121.69;5013301;28;20054;-70
2020/12/05 04:00:07;;;;;;;11.10;4.63;;;;;;;2.59;67.16;94137.41;5013179;28;20041;-70
2020/12/05 04:02:33;;;;;;;14.75;5.75;;;;;;;2.43;67.51;94155.16;5013753;28;20042;-70
2020/12/05 04:04:59;;;;;;;15.10;6.57;;;;;;;2.39;68.19;94170.31;5013592;28;20056;-69
2020/12/05 04:07:25;;;;;;;24.20;9.38;;;;;;;2.26;68.46;94175.56;5013011;28;20068;-70
2020/12/05 04:09:51;;;;;;;22.40;10.85;;;;;;;2.11;69.44;94178.72;5013580;28;20104;-70
2020/12/05 04:12:17;;;;;;;29.08;13.65;;;;;;;1.74;70.64;94175.59;5012881;28;20525;-70
2020/12/05 04:14:43;;;;;;;31.45;14.50;;;;;;;1.59;70.94;94189.47;5013432;28;20042;-69
2020/12/05 04:17:09;;;;;;;33.60;15.13;;;;;;;1.56;71.34;94192.75;5012861;28;20633;-69
2020/12/05 04:19:35;;;;;;;35.85;16.52;;;;;;;1.31;72.10;94210.41;5013147;28;20038;-69
2020/12/05 04:22:02;;;;;;;40.17;16.45;;;;;;;1.29;72.08;94240.19;5012743;28;20046;-70
2020/12/05 04:24:29;;;;;;;41.75;18.13;;;;;;;1.13;72.59;94257.78;5013168;28;20088;-70
2020/12/05 04:26:55;;;;;;;39.78;17.63;;;;;;;1.00;72.95;94259.47;5012874;28;20045;-69
2020/12/05 04:29:21;;;;;;;41.80;18.75;;;;;;;0.92;73.67;94278.97;5012753;28;20129;-70
2020/12/05 04:31:46;;;;;;;41.95;18.38;;;;;;;0.86;73.81;94284.78;5013096;28;20133;-70
2020/12/05 04:34:12;;;;;;;36.00;17.08;;;;;;;0.91;73.92;94284.66;5012551;28;20050;-70
2020/12/05 04:36:38;;;;;;;39.55;18.02;;;;;;;0.88;74.18;94280.69;5013077;28;20046;-72
2020/12/05 04:39:04;;;;;;;39.55;18.08;;;;;;;0.92;73.94;94289.69;5012321;28;20549;-70
2020/12/05 04:41:31;;;;;;;42.58;18.35;;;;;;;0.96;73.83;94295.25;5013050;28;20045;-70
2020/12/05 04:43:57;;;;;;;40.63;19.15;;;;;;;1.00;73.67;94306.94;5012926;28;20049;-70
2020/12/05 04:46:24;;;;;;;40.40;18.10;;;;;;;0.92;73.95;94307.66;5011599;28;20054;-70
2020/12/05 04:48:51;;;;;;;40.22;17.77;;;;;;;0.97;74.06;94319.03;5012594;28;20057;-72
2020/12/05 04:51:21;;;;;;;45.53;17.95;;;;;;;0.86;74.03;94336.47;5012179;28;20054;-72
2020/12/05 04:53:48;;;;;;;43.28;18.92;;;;;;;0.79;74.30;94352.19;5012587;28;20053;-71
2020/12/05 04:56:15;;;;;;;44.13;19.20;;;;;;;0.76;74.36;94361.63;5011689;28;20046;-72
2020/12/05 04:58:47;;;;;;;42.08;18.92;;;;;;;0.74;74.45;94368.41;5032312;28;20046;-70
2020/12/05 05:01:16;;;;;;;44.30;18.73;;;;;;;0.74;74.44;94377.22;5031879;28;20049;-72
2020/12/05 05:03:43;;;;;;;43.63;18.67;;;;;;;0.82;74.37;94364.19;5032226;28;20037;-72
2020/12/05 05:06:18;;;;;;;44.63;18.98;;;;;;;0.78;74.41;94372.03;5031656;28;20056;-72
2020/12/05 05:08:45;;;;;;;44.45;18.70;;;;;;;0.82;74.47;94374.91;5032389;28;20045;-72
2020/12/05 05:11:13;;;;;;;42.65;18.55;;;;;;;0.86;74.26;94375.88;5031253;28;20566;-72
2020/12/05 05:13:54;;;;;;;41.78;18.38;;;;;;;0.90;74.19;94382.22;5032049;28;20232;-72
2020/12/05 05:16:21;;;;;;;43.20;19.13;;;;;;;0.92;74.06;94385.38;5031461;28;20108;-72
2020/12/05 05:18:47;;;;;;;43.58;18.83;;;;;;;0.98;74.12;94368.06;5031956;28;20041;-70
2020/12/05 05:21:35;;;;;;;40.45;19.42;;;;;;;1.04;73.99;94369.53;5031335;28;20041;-70
2020/12/05 05:24:09;;;;;;;46.67;20.50;;;;;;;0.99;73.87;94407.16;5031433;28;20564;-72
2020/12/05 05:26:35;;;;;;;46.78;19.35;;;;;;;0.87;74.28;94431.84;5026860;28;20680;-70
2020/12/05 05:29:03;;;;;;;43.78;18.63;;;;;;;0.75;74.69;94447.66;5011544;28;20062;-72
2020/12/05 05:31:44;;;;;;;41.00;19.10;;;;;;;0.82;74.77;94449.91;5011922;28;20041;-72
2020/12/05 05:34:19;;;;;;;44.00;19.13;;;;;;;0.93;74.46;94453.94;5011357;28;20132;-72
2020/12/05 05:36:45;;;;;;;45.45;19.90;;;;;;;1.01;74.27;94469.31;5011864;28;20054;-72
2020/12/05 05:39:13;;;;;;;42.28;19.25;;;;;;;1.13;74.10;94466.09;5011062;28;20397;-72
2020/12/05 05:41:40;;;;;;;43.70;18.50;;;;;;;1.24;73.78;94462.84;5011770;28;20527;-72
2020/12/05 05:44:08;;;;;;;36.95;18.08;;;;;;;1.32;73.32;94479.31;5011281;28;20133;-71
2020/12/05 05:46:36;;;;;;;40.25;17.90;;;;;;;1.30;73.31;94461.66;5011598;28;20112;-72
2020/12/05 05:49:03;;;;;;;41.45;18.80;;;;;;;1.36;73.41;94456.13;5011090;28;20040;-71
2020/12/05 05:51:37;;;;;;;42.45;18.48;;;;;;;1.35;73.68;94465.28;5011500;28;20070;-71
2020/12/05 05:54:14;;;;;;;39.28;18.33;;;;;;;1.30;73.90;94493.84;5011065;28;20045;-72
2020/12/05 05:56:52;;;;;;;37.85;18.67;;;;;;;1.25;74.29;94487.78;5010594;28;20076;-72
2020/12/05 05:59:21;;;;;;;40.15;18.02;;;;;;;1.24;74.76;94489.66;5010914;28;20433;-72
2020/12/05 06:01:49;;;;;;;40.80;18.80;;;;;;;1.34;74.65;94506.63;5011389;28;20042;-72
2020/12/05 06:04:22;;;;;;;36.17;17.15;;;;;;;1.39;74.58;94519.91;5010814;28;20046;-72
2020/12/05 06:06:50;;;;;;;38.15;17.83;;;;;;;1.39;74.70;94534.09;5011404;28;20409;-72
2020/12/05 06:09:22;;;;;;;37.00;17.50;;;;;;;1.52;74.53;94548.56;5010753;28;20157;-72
2020/12/05 06:11:51;;;;;;;42.53;19.30;;;;;;;1.50;74.40;94551.53;5011356;28;20513;-72
2020/12/05 06:14:21;;;;;;;37.75;17.70;;;;;;;1.53;74.78;94544.78;5010498;28;20045;-72
2020/12/05 06:16:48;;;;;;;39.33;17.73;;;;;;;1.63;74.61;94543.75;5011199;28;20052;-72
2020/12/05 06:19:14;;;;;;;34.33;16.88;;;;;;;1.65;74.49;94539.66;5010779;28;20050;-72
2020/12/05 06:21:42;;;;;;;40.53;18.17;;;;;;;1.73;74.47;94555.03;5010953;28;20076;-72
2020/12/05 06:24:09;;;;;;;37.92;18.15;;;;;;;1.72;74.75;94564.19;5010512;28;20050;-71
2020/12/05 06:26:38;;;;;;;41.45;18.05;;;;;;;1.63;74.63;94565.22;5010687;28;20096;-72
2020/12/05 06:29:07;;;;;;;43.75;18.25;;;;;;;1.66;74.64;94565.38;5010438;28;20049;-72
2020/12/05 06:31:41;;;;;;;36.30;17.40;;;;;;;1.69;74.58;94548.69;5010803;28;20065;-72
2020/12/05 06:34:08;;;;;;;37.00;16.45;;;;;;;1.72;74.73;94525.78;5010230;28;20057;-72
2020/12/05 06:36:38;;;;;;;34.30;16.23;;;;;;;1.73;74.94;94552.34;5010996;28;20062;-72
2020/12/05 06:39:15;;;;;;;34.55;16.83;;;;;;;1.71;74.70;94567.94;5010114;28;20056;-72
2020/12/05 06:41:42;;;;;;;35.22;16.58;;;;;;;1.75;74.64;94562.75;5010640;28;20502;-72
2020/12/05 06:44:11;;;;;;;35.30;17.80;;;;;;;1.71;74.81;94538.44;5010102;28;20038;-72
2020/12/05 06:46:53;;;;;;;38.80;17.83;;;;;;;1.66;75.17;94516.28;5010675;28;20038;-72
2020/12/05 06:49:49;;;;;;;40.47;18.05;;;;;;;1.65;75.31;94520.88;5010119;28;20046;-72
2020/12/05 06:52:35;;;;;;;39.00;17.52;;;;;;;1.61;75.29;94530.63;5010385;28;20038;-72
2020/12/05 06:55:19;;;;;;;37.00;17.83;;;;;;;1.61;74.94;94527.94;5009921;28;20062;-72
2020/12/05 06:58:00;;;;;;;40.13;18.45;;;;;;;1.56;75.08;94549.53;5012231;28;20042;-72
2020/12/05 07:00:26;;;;;;;40.92;18.58;;;;;;;1.48;75.57;94574.41;5030006;28;20052;-72
2020/12/05 07:02:55;;;;;;;41.88;19.25;;;;;;;1.43;75.85;94593.31;5028856;28;20519;-72
2020/12/05 07:05:23;;;;;;;41.42;20.33;;;;;;;1.33;76.44;94606.94;5029696;28;20416;-72
2020/12/05 07:07:51;;;;;;;38.88;19.15;;;;;;;1.33;76.55;94601.56;5029853;28;20033;-71
2020/12/05 07:10:18;;;;;;;37.65;17.67;;;;;;;1.38;76.37;94607.63;5029362;28;20462;-72
2020/12/05 07:12:44;;;;;;;40.17;18.25;;;;;;;1.37;76.32;94610.59;5029890;28;20049;-72
2020/12/05 07:15:21;;;;;;;39.13;18.10;;;;;;;1.36;76.35;94622.41;5029399;28;20136;-72
2020/12/05 07:17:48;;;;;;;37.95;17.85;;;;;;;1.31;76.31;94634.06;5029880;28;20041;-72
2020/12/05 07:20:15;;;;;;;36.13;17.10;;;;;;;1.31;76.22;94666.25;5029579;28;20037;-72
2020/12/05 07:22:43;;;;;;;41.63;19.30;;;;;;;1.43;76.28;94663.81;5029871;28;20059;-72
2020/12/05 07:25:09;;;;;;;37.00;17.80;;;;;;;1.53;76.35;94674.34;5029281;28;20408;-72
2020/12/05 07:27:35;;;;;;;33.85;17.08;;;;;;;1.66;75.80;94680.75;5016880;28;20057;-72
2020/12/05 07:30:01;;;;;;;36.90;18.15;;;;;;;1.76;75.65;94688.56;5009731;28;20489;-72
2020/12/05 07:32:34;;;;;;;37.47;18.23;;;;;;;1.84;75.57;94700.50;5010003;28;20488;-72
2020/12/05 07:35:00;;;;;;;39.28;19.13;;;;;;;1.93;75.29;94692.50;5010025;28;20052;-72
2020/12/05 07:37:28;;;;;;;38.38;19.20;;;;;;;2.06;75.17;94707.78;5009616;28;20038;-72
2020/12/05 07:39:54;;;;;;;37.67;18.02;;;;;;;2.17;75.00;94709.13;5009742;28;20056;-72
2020/12/05 07:42:20;;;;;;;37.03;17.90;;;;;;;2.25;74.85;94715.66;5009525;28;20738;-72
2020/12/05 07:44:47;;;;;;;36.83;17.70;;;;;;;2.34;74.26;94703.88;5010085;28;20049;-72
2020/12/05 07:47:18;;;;;;;37.33;17.65;;;;;;;2.44;74.30;94708.19;5009539;28;20034;-72
2020/12/05 07:49:51;;;;;;;37.35;17.88;;;;;;;2.53;74.18;94727.06;5009661;28;20049;-72
2020/12/05 07:52:19;;;;;;;33.00;16.80;;;;;;;2.57;73.87;94760.31;5009317;28;20049;-72
2020/12/05 07:54:56;;;;;;;35.30;18.20;;;;;;;2.64;73.61;94765.22;5009822;28;20138;-72
2020/12/05 07:57:25;;;;;;;39.10;18.08;;;;;;;2.75;73.28;94767.34;5008947;28;20131;-72
2020/12/05 07:59:59;;;;;;;37.45;18.15;;;;;;;2.83;73.03;94763.16;5018841;28;20045;-72
2020/12/05 08:02:36;;;;;;;34.67;17.58;;;;;;;2.90;72.85;94773.47;5029154;28;20080;-69
2020/12/05 08:05:05;;;;;;;42.97;19.60;;;;;;;2.93;72.39;94762.91;5029138;28;20049;-72
2020/12/05 08:07:37;;;;;;;53.15;21.67;;;;;;;2.95;72.45;94768.75;5029059;28;20049;-72
2020/12/05 08:10:06;;;;;;;40.67;18.98;;;;;;;3.00;72.48;94783.97;5028991;28;20489;-72
2020/12/05 08:12:53;;;;;;;39.90;17.98;;;;;;;3.03;72.37;94772.59;5029328;28;20591;-72
2020/12/05 08:15:20;;;;;;;47.55;19.38;;;;;;;3.10;71.96;94771.03;5028800;28;20050;-71
2020/12/05 08:17:47;;;;;;;38.13;17.88;;;;;;;3.23;72.31;94782.00;5029297;28;20053;-72
2020/12/05 08:20:14;;;;;;;39.00;17.90;;;;;;;3.30;71.67;94783.16;5029234;28;20041;-72
2020/12/05 08:22:40;;;;;;;37.38;17.45;;;;;;;3.33;71.59;94792.50;5033008;28;20046;-72
2020/12/05 08:25:10;;;;;;;38.75;18.38;;;;;;;3.34;71.38;94784.13;5032519;28;20038;-72
2020/12/05 08:27:37;;;;;;;34.20;17.23;;;;;;;3.39;71.24;94775.94;5019683;28;20061;-72
2020/12/05 08:30:04;;;;;;;37.35;17.90;;;;;;;3.46;71.08;94761.22;5012661;28;20054;-72
2020/12/05 08:32:31;;;;;;;37.03;17.10;;;;;;;3.50;70.88;94781.00;5013015;28;20046;-72
2020/12/05 08:35:03;;;;;;;39.00;18.30;;;;;;;3.51;70.36;94788.00;5012892;28;20050;-72
2020/12/05 08:37:29;;;;;;;39.95;17.90;;;;;;;3.51;70.32;94796.88;5012683;28;20442;-72
2020/12/05 08:39:55;;;;;;;34.30;18.02;;;;;;;3.52;70.17;94805.72;5012853;28;20065;-72
2020/12/05 08:42:22;;;;;;;33.03;17.15;;;;;;;3.49;70.31;94798.25;5012501;28;20508;-72
2020/12/05 08:44:48;;;;;;;34.47;17.40;;;;;;;3.49;70.23;94792.88;5012719;28;20370;-72
2020/12/05 08:47:14;;;;;;;36.47;16.83;;;;;;;3.45;70.44;94784.66;5012286;28;20104;-71
2020/12/05 08:49:41;;;;;;;31.80;17.00;;;;;;;3.44;70.53;94793.00;5013019;28;20446;-72
2020/12/05 08:52:09;;;;;;;39.20;17.52;;;;;;;3.40;70.46;94820.56;5012082;28;20543;-72
2020/12/05 08:54:43;;;;;;;35.70;17.25;;;;;;;3.33;70.54;94833.66;5012722;28;20072;-72
2020/12/05 08:57:11;;;;;;;36.33;17.88;;;;;;;3.32;70.52;94836.66;5011864;28;20486;-72
2020/12/05 08:59:38;;;;;;;34.30;17.42;;;;;;;3.32;70.81;94842.81;5012551;28;20057;-71
2020/12/05 09:02:05;;;;;;;29.58;15.63;;;;;;;3.29;71.03;94851.53;5012291;28;20045;-71
2020/12/05 09:04:32;;;;;;;34.40;17.48;;;;;;;3.30;71.09;94866.56;5012562;28;20045;-71
2020/12/05 09:07:10;;;;;;;33.95;16.63;;;;;;;3.33;71.16;94857.06;5012500;28;20497;-71
2020/12/05 09:09:36;;;;;;;33.53;16.50;;;;;;;3.32;71.19;94861.66;5012054;28;20443;-71
2020/12/05 09:12:04;;;;;;;36.88;17.48;;;;;;;3.34;70.99;94864.03;5012091;28;20046;-71
2020/12/05 09:14:30;;;;;;;34.13;16.73;;;;;;;3.35;70.98;94865.66;5012483;28;20038;-71
2020/12/05 09:16:56;;;;;;;38.67;17.60;;;;;;;3.36;71.16;94856.47;5012390;28;20077;-71
2020/12/05 09:19:23;;;;;;;33.67;16.95;;;;;;;3.33;71.05;94868.63;5011761;28;20056;-71
2020/12/05 09:21:49;;;;;;;32.95;17.63;;;;;;;3.30;71.18;94873.84;5012224;28;20046;-71
2020/12/05 09:24:15;;;;;;;32.13;17.23;;;;;;;3.28;71.21;94884.88;5011714;28;20046;-71
2020/12/05 09:26:51;;;;;;;31.80;17.60;;;;;;;3.32;71.31;94883.19;5012398;28;20050;-71
2020/12/05 09:29:17;;;;;;;35.45;17.80;;;;;;;3.35;71.45;94871.81;5011551;28;20057;-71
2020/12/05 09:31:48;;;;;;;31.85;16.80;;;;;;;3.38;71.44;94878.47;5031461;28;20065;-71
2020/12/05 09:34:15;;;;;;;39.65;18.27;;;;;;;3.44;71.48;94879.13;5030326;28;20045;-71
2020/12/05 09:36:41;;;;;;;37.13;17.55;;;;;;;3.49;71.55;94877.09;5029281;28;20408;-71
2020/12/05 09:39:07;;;;;;;34.35;16.92;;;;;;;3.56;71.73;94882.84;5029141;28;20041;-71
2020/12/05 09:41:34;;;;;;;32.88;16.35;;;;;;;3.62;71.81;94864.66;5031315;28;20092;-71
2020/12/05 09:44:01;;;;;;;34.33;16.90;;;;;;;3.65;71.53;94858.66;5030863;28;20048;-71
2020/12/05 09:46:27;;;;;;;36.40;17.10;;;;;;;3.69;71.34;94854.25;5031168;28;20048;-73
2020/12/05 09:48:53;;;;;;;34.20;16.95;;;;;;;3.73;71.35;94857.91;5031265;28;20037;-74
2020/12/05 09:51:20;;;;;;;38.60;17.60;;;;;;;3.77;71.68;94855.38;5016661;28;20116;-73
2020/12/05 09:53:46;;;;;;;36.95;17.95;;;;;;;3.76;71.65;94859.97;5006530;28;20045;-73
2020/12/05 09:56:13;;;;;;;35.03;18.17;;;;;;;3.73;71.81;94859.81;5007438;28;20057;-74
2020/12/05 09:58:39;;;;;;;36.83;18.40;;;;;;;3.70;71.81;94865.78;5019131;28;20056;-73
2020/12/05 10:01:05;;;;;;;34.10;18.33;;;;;;;3.56;71.85;94872.09;5007736;28;20044;-74
2020/12/05 10:03:31;;;;;;;35.53;17.67;;;;;;;3.47;72.23;94873.94;5008254;28;20584;-73
2020/12/05 10:05:57;;;;;;;37.78;18.45;;;;;;;3.48;72.72;94869.34;5008214;28;20050;-74
2020/12/05 10:08:26;;;;;;;39.88;19.17;;;;;;;3.46;73.47;94860.78;5018660;28;20053;-74
2020/12/05 10:10:53;;;;;;;41.25;18.60;;;;;;;3.45;73.98;94854.63;5027421;28;20049;-73
2020/12/05 10:13:19;;;;;;;35.75;18.77;;;;;;;3.43;74.39;94858.72;5027079;28;20049;-73
2020/12/05 10:15:46;;;;;;;44.67;19.77;;;;;;;3.40;74.84;94869.00;5019778;28;20041;-74
2020/12/05 10:18:12;;;;;;;41.67;18.48;;;;;;;3.38;75.13;94871.19;5006261;28;20513;-74
2020/12/05 10:20:38;;;;;;;46.80;19.35;;;;;;;3.38;75.06;94863.13;5007917;28;20045;-73
2020/12/05 10:23:04;;;;;;;43.88;19.42;;;;;;;3.39;75.25;94872.78;5007616;28;20133;-73
2020/12/05 10:25:32;;;;;;;42.15;20.02;;;;;;;3.36;75.26;94878.00;5007947;28;20073;-74
2020/12/05 10:27:58;;;;;;;53.90;20.60;;;;;;;3.39;75.38;94877.34;5007714;28;20052;-74
2020/12/05 10:30:24;;;;;;;49.70;20.42;;;;;;;3.42;75.25;94881.34;5007024;28;20060;-73
2020/12/05 10:32:50;;;;;;;41.30;19.02;;;;;;;3.38;75.50;94881.94;5008125;28;20050;-74
2020/12/05 10:35:16;;;;;;;50.53;19.30;;;;;;;3.33;75.44;94892.84;5007134;28;20496;-74
2020/12/05 10:37:42;;;;;;;60.13;19.63;;;;;;;3.30;75.42;94887.28;5008001;28;20052;-74
2020/12/05 10:40:08;;;;;;;60.08;20.42;;;;;;;3.26;75.56;94886.31;5006903;28;20651;-74
2020/12/05 10:42:35;;;;;;;53.10;19.67;;;;;;;3.12;75.75;94902.50;5007427;28;20128;-74
2020/12/05 10:45:01;;;;;;;38.13;18.80;;;;;;;3.07;76.09;94905.31;5006523;28;20045;-73
2020/12/05 10:47:27;;;;;;;46.67;20.65;;;;;;;3.09;76.02;94903.13;5007652;28;20060;-74
2020/12/05 10:49:53;;;;;;;36.60;19.40;;;;;;;3.08;76.49;94901.53;5007613;28;20045;-74
2020/12/05 10:52:19;;;;;;;47.55;19.30;;;;;;;3.11;76.53;94898.25;5006878;28;20048;-74
2020/12/05 10:54:45;;;;;;;41.40;19.75;;;;;;;3.14;76.62;94898.44;5007640;28;20056;-74
2020/12/05 10:57:11;;;;;;;36.83;19.45;;;;;;;3.16;76.53;94895.44;5006438;28;20409;-73
2020/12/05 10:59:38;;;;;;;38.85;18.35;;;;;;;3.18;76.44;94887.84;5007278;28;20046;-73
2020/12/05 11:02:04;;;;;;;35.72;19.35;;;;;;;3.25;75.97;94877.44;5006598;28;20050;-73
2020/12/05 11:04:30;;;;;;;38.05;18.58;;;;;;;3.28;76.28;94895.66;5007318;28;20520;-74
2020/12/05 11:06:56;;;;;;;39.03;18.60;;;;;;;3.24;75.91;94892.00;5006753;28;20057;-73
2020/12/05 11:09:22;;;;;;;43.10;19.75;;;;;;;3.22;76.42;94888.81;5006783;28;20060;-73
2020/12/05 11:11:48;;;;;;;39.88;19.40;;;;;;;3.18;77.08;94893.22;5006874;28;20505;-74
2020/12/05 11:14:14;;;;;;;45.90;21.75;;;;;;;3.18;77.33;94898.59;5006193;28;20073;-73
2020/12/05 11:16:41;;;;;;;43.55;21.95;;;;;;;3.22;77.35;94899.56;5007117;28;20073;-74
2020/12/05 11:19:07;;;;;;;34.60;19.52;;;;;;;3.03;77.23;94896.31;5006825;28;20049;-74
2020/12/05 11:21:33;;;;;;;39.78;20.10;;;;;;;3.03;77.58;94901.69;5006887;28;20147;-74
2020/12/05 11:23:59;;;;;;;47.47;20.45;;;;;;;3.04;78.17;94900.56;5006917;28;20061;-73
2020/12/05 11:26:25;;;;;;;43.45;20.13;;;;;;;3.00;78.52;94896.91;5006263;28;20077;-74
2020/12/05 11:28:51;;;;;;;42.90;22.05;;;;;;;3.02;78.71;94905.44;5007022;28;20112;-73
2020/12/05 11:31:17;;;;;;;40.35;20.38;;;;;;;3.01;79.01;94898.47;5006161;28;20107;-73